sensor_id;sensor_type;location;lat;lon;timestamp;P1;durP1;ratioP1;P2;durP2;ratioP2
6378;SDS011;3222;48.858;10.128;2022-08-01T00:01:34;2.53;;;2.20;;
6378;SDS011;3222;48.858;10.128;2022-08-01T00:04:00;3.40;;;2.15;;
6378;SDS011;3222;48.858;10.128;2022-08-01T00:06:26;2.10;;;1.90;;
6378;SDS011;3222;48.858;10.128;2022-08-01T00:08:52;1.98;;;1.88;;
6378;SDS011;3222;48.858;10.128;2022-08-01T00:11:18;1.90;;;1.80;;
6378;SDS011;3222;48.858;10.128;2022-08-01T00:13:44;2.65;;;2.40;;
6378;SDS011;3222;48.858;10.128;2022-08-01T00:16:09;2.57;;;1.80;;
6378;SDS011;3222;48.858;10.128;2022-08-01T00:18:35;2.00;;;1.80;;
6378;SDS011;3222;48.858;10.128;2022-08-01T00:21:02;2.03;;;1.90;;
6378;SDS011;3222;48.858;10.128;2022-08-01T00:23:28;2.20;;;1.80;;
6378;SDS011;3222;48.858;10.128;2022-08-01T00:25:54;2.42;;;2.22;;
6378;SDS011;3222;48.858;10.128;2022-08-01T00:28:20;1.73;;;1.63;;
6378;SDS011;3222;48.858;10.128;2022-08-01T00:30:45;2.57;;;1.60;;
6378;SDS011;3222;48.858;10.128;2022-08-01T00:33:11;4.20;;;1.40;;
6378;SDS011;3222;48.858;10.128;2022-08-01T00:35:37;2.42;;;1.90;;
6378;SDS011;3222;48.858;10.128;2022-08-01T00:38:02;2.20;;;1.63;;
6378;SDS011;3222;48.858;10.128;2022-08-01T00:40:28;1.60;;;1.50;;
6378;SDS011;3222;48.858;10.128;2022-08-01T00:42:54;1.87;;;1.70;;
6378;SDS011;3222;48.858;10.128;2022-08-01T00:45:19;2.67;;;1.63;;
6378;SDS011;3222;48.858;10.128;2022-08-01T00:47:45;1.50;;;1.40;;
6378;SDS011;3222;48.858;10.128;2022-08-01T00:50:11;1.60;;;1.50;;
6378;SDS011;3222;48.858;10.128;2022-08-01T00:52:37;1.43;;;1.37;;
6378;SDS011;3222;48.858;10.128;2022-08-01T00:55:05;1.80;;;1.70;;
6378;SDS011;3222;48.858;10.128;2022-08-01T00:57:31;1.40;;;1.30;;
6378;SDS011;3222;48.858;10.128;2022-08-01T00:59:57;1.70;;;1.60;;
6378;SDS011;3222;48.858;10.128;2022-08-01T01:02:23;1.80;;;1.60;;
6378;SDS011;3222;48.858;10.128;2022-08-01T01:04:49;2.03;;;1.77;;
6378;SDS011;3222;48.858;10.128;2022-08-01T01:07:25;2.03;;;1.93;;
6378;SDS011;3222;48.858;10.128;2022-08-01T01:09:58;3.07;;;2.10;;
6378;SDS011;3222;48.858;10.128;2022-08-01T01:17:58;2.00;;;1.90;;
6378;SDS011;3222;48.858;10.128;2022-08-01T01:20:29;1.97;;;1.77;;
6378;SDS011;3222;48.858;10.128;2022-08-01T01:29:02;2.17;;;1.70;;
6378;SDS011;3222;48.858;10.128;2022-08-01T01:31:33;2.10;;;1.90;;
6378;SDS011;3222;48.858;10.128;2022-08-01T01:34:06;2.23;;;1.70;;
6378;SDS011;3222;48.858;10.128;2022-08-01T01:36:34;1.87;;;1.60;;
6378;SDS011;3222;48.858;10.128;2022-08-01T01:39:02;1.90;;;1.80;;
6378;SDS011;3222;48.858;10.128;2022-08-01T01:41:27;2.13;;;1.97;;
6378;SDS011;3222;48.858;10.128;2022-08-01T01:43:55;3.13;;;2.03;;
6378;SDS011;3222;48.858;10.128;2022-08-01T01:46:22;2.30;;;2.10;;
6378;SDS011;3222;48.858;10.128;2022-08-01T01:48:52;2.73;;;2.03;;
6378;SDS011;3222;48.858;10.128;2022-08-01T01:51:21;3.23;;;2.13;;
6378;SDS011;3222;48.858;10.128;2022-08-01T01:53:49;2.57;;;2.30;;
6378;SDS011;3222;48.858;10.128;2022-08-01T01:56:18;3.60;;;2.47;;
6378;SDS011;3222;48.858;10.128;2022-08-01T01:58:44;2.23;;;2.03;;
6378;SDS011;3222;48.858;10.128;2022-08-01T02:01:20;2.30;;;2.03;;
6378;SDS011;3222;48.858;10.128;2022-08-01T02:03:48;3.87;;;2.07;;
6378;SDS011;3222;48.858;10.128;2022-08-01T02:06:16;1.80;;;1.70;;
6378;SDS011;3222;48.858;10.128;2022-08-01T02:08:42;1.83;;;1.60;;
6378;SDS011;3222;48.858;10.128;2022-08-01T02:11:09;3.17;;;2.03;;
6378;SDS011;3222;48.858;10.128;2022-08-01T02:13:51;2.07;;;1.97;;
6378;SDS011;3222;48.858;10.128;2022-08-01T02:16:21;3.80;;;1.77;;
6378;SDS011;3222;48.858;10.128;2022-08-01T02:18:49;1.63;;;1.53;;
6378;SDS011;3222;48.858;10.128;2022-08-01T02:21:16;1.60;;;1.50;;
6378;SDS011;3222;48.858;10.128;2022-08-01T02:23:47;1.70;;;1.60;;
6378;SDS011;3222;48.858;10.128;2022-08-01T02:26:15;1.93;;;1.83;;
6378;SDS011;3222;48.858;10.128;2022-08-01T02:28:45;3.03;;;1.60;;
6378;SDS011;3222;48.858;10.128;2022-08-01T02:31:17;2.90;;;2.10;;
6378;SDS011;3222;48.858;10.128;2022-08-01T02:33:48;1.77;;;1.67;;
6378;SDS011;3222;48.858;10.128;2022-08-01T02:36:35;1.80;;;1.70;;
6378;SDS011;3222;48.858;10.128;2022-08-01T02:39:02;2.50;;;2.13;;
6378;SDS011;3222;48.858;10.128;2022-08-01T02:41:31;2.10;;;1.90;;
6378;SDS011;3222;48.858;10.128;2022-08-01T02:44:02;2.47;;;1.73;;
6378;SDS011;3222;48.858;10.128;2022-08-01T02:46:38;2.50;;;1.60;;
6378;SDS011;3222;48.858;10.128;2022-08-01T02:49:06;2.20;;;2.00;;
6378;SDS011;3222;48.858;10.128;2022-08-01T02:51:34;2.23;;;2.10;;
6378;SDS011;3222;48.858;10.128;2022-08-01T02:54:01;2.90;;;2.10;;
6378;SDS011;3222;48.858;10.128;2022-08-01T02:56:29;2.53;;;2.00;;
6378;SDS011;3222;48.858;10.128;2022-08-01T02:59:06;2.97;;;2.27;;
6378;SDS011;3222;48.858;10.128;2022-08-01T03:01:34;2.70;;;1.97;;
6378;SDS011;3222;48.858;10.128;2022-08-01T03:04:02;3.67;;;2.07;;
6378;SDS011;3222;48.858;10.128;2022-08-01T03:06:30;2.27;;;2.13;;
6378;SDS011;3222;48.858;10.128;2022-08-01T03:08:58;2.33;;;2.17;;
6378;SDS011;3222;48.858;10.128;2022-08-01T03:11:26;2.27;;;2.07;;
6378;SDS011;3222;48.858;10.128;2022-08-01T03:13:55;3.70;;;1.80;;
6378;SDS011;3222;48.858;10.128;2022-08-01T03:16:21;3.93;;;1.90;;
6378;SDS011;3222;48.858;10.128;2022-08-01T03:18:51;1.97;;;1.87;;
6378;SDS011;3222;48.858;10.128;2022-08-01T03:21:19;2.13;;;1.93;;
6378;SDS011;3222;48.858;10.128;2022-08-01T03:23:47;2.67;;;1.70;;
6378;SDS011;3222;48.858;10.128;2022-08-01T03:26:14;2.13;;;1.93;;
6378;SDS011;3222;48.858;10.128;2022-08-01T03:28:41;2.57;;;2.27;;
6378;SDS011;3222;48.858;10.128;2022-08-01T03:31:09;2.13;;;1.67;;
6378;SDS011;3222;48.858;10.128;2022-08-01T03:33:37;1.70;;;1.60;;
6378;SDS011;3222;48.858;10.128;2022-08-01T03:36:03;1.93;;;1.53;;
6378;SDS011;3222;48.858;10.128;2022-08-01T03:38:32;1.90;;;1.70;;
6378;SDS011;3222;48.858;10.128;2022-08-01T03:41:05;1.83;;;1.73;;
6378;SDS011;3222;48.858;10.128;2022-08-01T03:43:45;2.30;;;2.10;;
6378;SDS011;3222;48.858;10.128;2022-08-01T03:46:19;2.10;;;1.90;;
6378;SDS011;3222;48.858;10.128;2022-08-01T03:48:49;2.63;;;1.90;;
6378;SDS011;3222;48.858;10.128;2022-08-01T03:51:18;2.23;;;2.00;;
6378;SDS011;3222;48.858;10.128;2022-08-01T03:53:46;1.90;;;1.80;;
6378;SDS011;3222;48.858;10.128;2022-08-01T03:56:16;1.90;;;1.80;;
6378;SDS011;3222;48.858;10.128;2022-08-01T03:58:47;2.07;;;1.97;;
6378;SDS011;3222;48.858;10.128;2022-08-01T04:01:13;1.80;;;1.70;;
6378;SDS011;3222;48.858;10.128;2022-08-01T04:03:40;2.03;;;1.83;;
6378;SDS011;3222;48.858;10.128;2022-08-01T04:06:06;1.80;;;1.70;;
6378;SDS011;3222;48.858;10.128;2022-08-01T04:08:36;1.60;;;1.50;;
6378;SDS011;3222;48.858;10.128;2022-08-01T04:11:03;2.10;;;1.80;;
6378;SDS011;3222;48.858;10.128;2022-08-01T04:13:30;2.13;;;2.00;;
6378;SDS011;3222;48.858;10.128;2022-08-01T04:15:56;3.73;;;1.83;;
6378;SDS011;3222;48.858;10.128;2022-08-01T04:18:22;2.30;;;2.10;;
6378;SDS011;3222;48.858;10.128;2022-08-01T04:20:47;1.70;;;1.60;;
6378;SDS011;3222;48.858;10.128;2022-08-01T04:23:15;1.87;;;1.73;;
6378;SDS011;3222;48.858;10.128;2022-08-01T04:25:42;2.47;;;1.80;;
6378;SDS011;3222;48.858;10.128;2022-08-01T04:28:10;2.17;;;1.67;;
6378;SDS011;3222;48.858;10.128;2022-08-01T04:30:41;2.20;;;1.80;;
6378;SDS011;3222;48.858;10.128;2022-08-01T04:33:10;3.87;;;1.80;;
6378;SDS011;3222;48.858;10.128;2022-08-01T04:35:41;1.80;;;1.70;;
6378;SDS011;3222;48.858;10.128;2022-08-01T04:38:10;2.33;;;2.00;;
6378;SDS011;3222;48.858;10.128;2022-08-01T04:40:38;2.03;;;1.93;;
6378;SDS011;3222;48.858;10.128;2022-08-01T04:43:06;2.90;;;2.40;;
6378;SDS011;3222;48.858;10.128;2022-08-01T04:45:32;1.97;;;1.87;;
6378;SDS011;3222;48.858;10.128;2022-08-01T04:47:58;2.50;;;2.30;;
6378;SDS011;3222;48.858;10.128;2022-08-01T04:50:25;2.57;;;2.10;;
6378;SDS011;3222;48.858;10.128;2022-08-01T04:52:51;3.07;;;2.70;;
6378;SDS011;3222;48.858;10.128;2022-08-01T04:55:16;3.30;;;2.73;;
6378;SDS011;3222;48.858;10.128;2022-08-01T04:57:43;2.90;;;2.60;;
6378;SDS011;3222;48.858;10.128;2022-08-01T05:00:10;3.20;;;2.50;;
6378;SDS011;3222;48.858;10.128;2022-08-01T05:02:36;3.17;;;2.50;;
6378;SDS011;3222;48.858;10.128;2022-08-01T05:05:03;3.00;;;2.30;;
6378;SDS011;3222;48.858;10.128;2022-08-01T05:07:31;2.30;;;2.10;;
6378;SDS011;3222;48.858;10.128;2022-08-01T05:09:58;2.37;;;2.07;;
6378;SDS011;3222;48.858;10.128;2022-08-01T05:12:23;4.13;;;2.30;;
6378;SDS011;3222;48.858;10.128;2022-08-01T05:14:49;2.37;;;1.87;;
6378;SDS011;3222;48.858;10.128;2022-08-01T05:17:15;2.30;;;1.97;;
6378;SDS011;3222;48.858;10.128;2022-08-01T05:19:41;2.00;;;1.77;;
6378;SDS011;3222;48.858;10.128;2022-08-01T05:22:10;2.13;;;2.00;;
6378;SDS011;3222;48.858;10.128;2022-08-01T05:24:38;2.30;;;2.00;;
6378;SDS011;3222;48.858;10.128;2022-08-01T05:27:04;2.03;;;1.93;;
6378;SDS011;3222;48.858;10.128;2022-08-01T05:29:34;2.97;;;2.30;;
6378;SDS011;3222;48.858;10.128;2022-08-01T05:32:00;1.90;;;1.80;;
6378;SDS011;3222;48.858;10.128;2022-08-01T05:34:26;2.90;;;1.90;;
6378;SDS011;3222;48.858;10.128;2022-08-01T05:36:52;3.73;;;2.07;;
6378;SDS011;3222;48.858;10.128;2022-08-01T05:39:18;1.93;;;1.83;;
6378;SDS011;3222;48.858;10.128;2022-08-01T05:41:44;2.50;;;1.90;;
6378;SDS011;3222;48.858;10.128;2022-08-01T05:44:10;2.77;;;2.00;;
6378;SDS011;3222;48.858;10.128;2022-08-01T05:46:35;3.37;;;2.17;;
6378;SDS011;3222;48.858;10.128;2022-08-01T05:49:02;2.03;;;1.93;;
6378;SDS011;3222;48.858;10.128;2022-08-01T05:51:29;3.60;;;2.07;;
6378;SDS011;3222;48.858;10.128;2022-08-01T05:53:55;2.73;;;2.20;;
6378;SDS011;3222;48.858;10.128;2022-08-01T05:56:21;5.37;;;2.40;;
6378;SDS011;3222;48.858;10.128;2022-08-01T05:58:47;3.23;;;2.10;;
6378;SDS011;3222;48.858;10.128;2022-08-01T06:01:14;3.27;;;2.00;;
6378;SDS011;3222;48.858;10.128;2022-08-01T06:03:40;1.73;;;1.63;;
6378;SDS011;3222;48.858;10.128;2022-08-01T06:06:06;2.37;;;2.17;;
6378;SDS011;3222;48.858;10.128;2022-08-01T06:08:32;2.87;;;2.23;;
6378;SDS011;3222;48.858;10.128;2022-08-01T06:10:58;3.73;;;2.20;;
6378;SDS011;3222;48.858;10.128;2022-08-01T06:13:23;2.43;;;1.93;;
6378;SDS011;3222;48.858;10.128;2022-08-01T06:15:50;2.07;;;1.87;;
6378;SDS011;3222;48.858;10.128;2022-08-01T06:18:16;3.00;;;1.93;;
6378;SDS011;3222;48.858;10.128;2022-08-01T06:20:42;2.10;;;1.93;;
6378;SDS011;3222;48.858;10.128;2022-08-01T06:23:08;3.13;;;2.20;;
6378;SDS011;3222;48.858;10.128;2022-08-01T06:25:34;2.60;;;1.80;;
6378;SDS011;3222;48.858;10.128;2022-08-01T06:28:00;3.20;;;2.20;;
6378;SDS011;3222;48.858;10.128;2022-08-01T06:30:26;2.33;;;1.80;;
6378;SDS011;3222;48.858;10.128;2022-08-01T06:32:52;3.37;;;1.90;;
6378;SDS011;3222;48.858;10.128;2022-08-01T06:35:21;1.80;;;1.70;;
6378;SDS011;3222;48.858;10.128;2022-08-01T06:37:46;2.20;;;2.00;;
6378;SDS011;3222;48.858;10.128;2022-08-01T06:40:12;2.10;;;2.00;;
6378;SDS011;3222;48.858;10.128;2022-08-01T06:42:38;1.93;;;1.77;;
6378;SDS011;3222;48.858;10.128;2022-08-01T06:45:05;1.80;;;1.70;;
6378;SDS011;3222;48.858;10.128;2022-08-01T06:47:31;2.50;;;1.90;;
6378;SDS011;3222;48.858;10.128;2022-08-01T06:49:57;1.90;;;1.80;;
6378;SDS011;3222;48.858;10.128;2022-08-01T06:52:23;1.90;;;1.70;;
6378;SDS011;3222;48.858;10.128;2022-08-01T06:54:49;2.70;;;1.80;;
6378;SDS011;3222;48.858;10.128;2022-08-01T06:57:15;2.80;;;2.10;;
6378;SDS011;3222;48.858;10.128;2022-08-01T06:59:40;1.40;;;1.40;;
6378;SDS011;3222;48.858;10.128;2022-08-01T07:02:06;2.13;;;1.93;;
6378;SDS011;3222;48.858;10.128;2022-08-01T07:04:33;2.00;;;1.90;;
6378;SDS011;3222;48.858;10.128;2022-08-01T07:06:59;2.43;;;2.10;;
6378;SDS011;3222;48.858;10.128;2022-08-01T07:09:25;2.97;;;2.50;;
6378;SDS011;3222;48.858;10.128;2022-08-01T07:11:51;1.80;;;1.70;;
6378;SDS011;3222;48.858;10.128;2022-08-01T07:14:18;1.80;;;1.70;;
6378;SDS011;3222;48.858;10.128;2022-08-01T07:16:44;3.63;;;1.70;;
6378;SDS011;3222;48.858;10.128;2022-08-01T07:19:10;1.80;;;1.70;;
6378;SDS011;3222;48.858;10.128;2022-08-01T07:21:37;1.83;;;1.73;;
6378;SDS011;3222;48.858;10.128;2022-08-01T07:24:04;1.77;;;1.67;;
6378;SDS011;3222;48.858;10.128;2022-08-01T07:26:30;3.20;;;1.77;;
6378;SDS011;3222;48.858;10.128;2022-08-01T07:28:56;1.67;;;1.57;;
6378;SDS011;3222;48.858;10.128;2022-08-01T07:31:22;2.10;;;1.90;;
6378;SDS011;3222;48.858;10.128;2022-08-01T07:33:48;2.13;;;1.93;;
6378;SDS011;3222;48.858;10.128;2022-08-01T07:36:17;1.87;;;1.77;;
6378;SDS011;3222;48.858;10.128;2022-08-01T07:38:44;1.90;;;1.73;;
6378;SDS011;3222;48.858;10.128;2022-08-01T07:41:10;1.60;;;1.50;;
6378;SDS011;3222;48.858;10.128;2022-08-01T07:43:36;3.37;;;1.70;;
6378;SDS011;3222;48.858;10.128;2022-08-01T07:46:02;2.10;;;1.60;;
6378;SDS011;3222;48.858;10.128;2022-08-01T07:48:29;1.47;;;1.47;;
6378;SDS011;3222;48.858;10.128;2022-08-01T07:50:55;2.97;;;2.10;;
6378;SDS011;3222;48.858;10.128;2022-08-01T07:53:21;2.57;;;1.90;;
6378;SDS011;3222;48.858;10.128;2022-08-01T07:55:46;1.97;;;1.83;;
6378;SDS011;3222;48.858;10.128;2022-08-01T07:58:13;1.70;;;1.60;;
6378;SDS011;3222;48.858;10.128;2022-08-01T08:00:39;2.50;;;1.47;;
6378;SDS011;3222;48.858;10.128;2022-08-01T08:03:05;1.83;;;1.63;;
6378;SDS011;3222;48.858;10.128;2022-08-01T08:05:31;1.77;;;1.67;;
6378;SDS011;3222;48.858;10.128;2022-08-01T08:08:00;1.53;;;1.43;;
6378;SDS011;3222;48.858;10.128;2022-08-01T08:10:27;2.10;;;1.90;;
6378;SDS011;3222;48.858;10.128;2022-08-01T08:12:52;2.40;;;1.70;;
6378;SDS011;3222;48.858;10.128;2022-08-01T08:15:18;1.60;;;1.50;;
6378;SDS011;3222;48.858;10.128;2022-08-01T08:17:44;1.63;;;1.43;;
6378;SDS011;3222;48.858;10.128;2022-08-01T08:20:09;2.92;;;1.70;;
6378;SDS011;3222;48.858;10.128;2022-08-01T08:22:35;4.70;;;1.70;;
6378;SDS011;3222;48.858;10.128;2022-08-01T08:25:01;1.40;;;1.30;;
6378;SDS011;3222;48.858;10.128;2022-08-01T08:27:27;4.50;;;1.70;;
6378;SDS011;3222;48.858;10.128;2022-08-01T08:29:53;1.70;;;1.60;;
6378;SDS011;3222;48.858;10.128;2022-08-01T08:32:18;1.70;;;1.60;;
6378;SDS011;3222;48.858;10.128;2022-08-01T08:34:44;2.00;;;1.70;;
6378;SDS011;3222;48.858;10.128;2022-08-01T08:37:10;1.90;;;1.70;;
6378;SDS011;3222;48.858;10.128;2022-08-01T08:39:36;1.53;;;1.37;;
6378;SDS011;3222;48.858;10.128;2022-08-01T08:42:05;1.75;;;1.50;;
6378;SDS011;3222;48.858;10.128;2022-08-01T08:44:31;1.92;;;1.58;;
6378;SDS011;3222;48.858;10.128;2022-08-01T08:46:57;1.73;;;1.63;;
6378;SDS011;3222;48.858;10.128;2022-08-01T08:49:27;2.10;;;1.70;;
6378;SDS011;3222;48.858;10.128;2022-08-01T08:51:57;3.00;;;2.03;;
6378;SDS011;3222;48.858;10.128;2022-08-01T08:54:25;2.28;;;1.42;;
6378;SDS011;3222;48.858;10.128;2022-08-01T08:56:52;3.20;;;1.75;;
6378;SDS011;3222;48.858;10.128;2022-08-01T08:59:19;1.87;;;1.77;;
6378;SDS011;3222;48.858;10.128;2022-08-01T09:01:45;1.53;;;1.43;;
6378;SDS011;3222;48.858;10.128;2022-08-01T09:04:11;2.10;;;1.67;;
6378;SDS011;3222;48.858;10.128;2022-08-01T09:06:38;1.52;;;1.42;;
6378;SDS011;3222;48.858;10.128;2022-08-01T09:09:05;1.70;;;1.60;;
6378;SDS011;3222;48.858;10.128;2022-08-01T09:11:31;2.78;;;1.55;;
6378;SDS011;3222;48.858;10.128;2022-08-01T09:14:11;1.40;;;1.30;;
6378;SDS011;3222;48.858;10.128;2022-08-01T09:16:42;1.50;;;1.40;;
6378;SDS011;3222;48.858;10.128;2022-08-01T09:19:10;1.48;;;1.33;;
6378;SDS011;3222;48.858;10.128;2022-08-01T09:21:38;1.52;;;1.30;;
6378;SDS011;3222;48.858;10.128;2022-08-01T09:24:13;1.27;;;1.27;;
6378;SDS011;3222;48.858;10.128;2022-08-01T09:26:40;1.25;;;1.15;;
6378;SDS011;3222;48.858;10.128;2022-08-01T09:29:06;1.10;;;1.10;;
6378;SDS011;3222;48.858;10.128;2022-08-01T09:31:43;1.30;;;1.20;;
6378;SDS011;3222;48.858;10.128;2022-08-01T09:34:10;1.15;;;1.15;;
6378;SDS011;3222;48.858;10.128;2022-08-01T09:39:31;1.15;;;1.05;;
6378;SDS011;3222;48.858;10.128;2022-08-01T09:41:59;1.40;;;1.30;;
6378;SDS011;3222;48.858;10.128;2022-08-01T09:44:43;1.17;;;1.17;;
6378;SDS011;3222;48.858;10.128;2022-08-01T09:47:10;1.42;;;1.20;;
6378;SDS011;3222;48.858;10.128;2022-08-01T09:49:38;1.35;;;1.23;;
6378;SDS011;3222;48.858;10.128;2022-08-01T09:52:18;1.10;;;1.10;;
6378;SDS011;3222;48.858;10.128;2022-08-01T09:54:59;1.70;;;1.60;;
6378;SDS011;3222;48.858;10.128;2022-08-01T09:57:30;1.50;;;1.40;;
6378;SDS011;3222;48.858;10.128;2022-08-01T09:59:57;2.67;;;1.48;;
6378;SDS011;3222;48.858;10.128;2022-08-01T10:02:34;1.10;;;1.05;;
6378;SDS011;3222;48.858;10.128;2022-08-01T10:05:02;1.50;;;1.40;;
6378;SDS011;3222;48.858;10.128;2022-08-01T10:07:30;2.13;;;1.13;;
6378;SDS011;3222;48.858;10.128;2022-08-01T10:09:55;1.15;;;1.15;;
6378;SDS011;3222;48.858;10.128;2022-08-01T10:12:34;2.63;;;1.30;;
6378;SDS011;3222;48.858;10.128;2022-08-01T10:15:00;1.42;;;1.33;;
6378;SDS011;3222;48.858;10.128;2022-08-01T10:17:27;1.73;;;1.63;;
6378;SDS011;3222;48.858;10.128;2022-08-01T10:19:53;2.58;;;1.33;;
6378;SDS011;3222;48.858;10.128;2022-08-01T10:22:21;1.55;;;1.40;;
6378;SDS011;3222;48.858;10.128;2022-08-01T10:24:49;1.80;;;1.13;;
6378;SDS011;3222;48.858;10.128;2022-08-01T10:27:19;1.20;;;1.20;;
6378;SDS011;3222;48.858;10.128;2022-08-01T10:29:56;1.50;;;1.40;;
6378;SDS011;3222;48.858;10.128;2022-08-01T10:32:28;1.42;;;1.17;;
6378;SDS011;3222;48.858;10.128;2022-08-01T10:34:55;2.28;;;1.20;;
6378;SDS011;3222;48.858;10.128;2022-08-01T10:37:22;1.05;;;1.05;;
6378;SDS011;3222;48.858;10.128;2022-08-01T10:39:48;1.40;;;1.30;;
6378;SDS011;3222;48.858;10.128;2022-08-01T10:42:16;2.25;;;1.45;;
6378;SDS011;3222;48.858;10.128;2022-08-01T10:44:43;1.02;;;1.02;;
6378;SDS011;3222;48.858;10.128;2022-08-01T10:47:14;2.05;;;1.20;;
6378;SDS011;3222;48.858;10.128;2022-08-01T10:49:53;1.30;;;1.10;;
6378;SDS011;3222;48.858;10.128;2022-08-01T10:52:26;1.23;;;1.13;;
6378;SDS011;3222;48.858;10.128;2022-08-01T10:55:02;1.27;;;1.17;;
6378;SDS011;3222;48.858;10.128;2022-08-01T10:57:44;1.23;;;1.13;;
6378;SDS011;3222;48.858;10.128;2022-08-01T11:00:19;1.38;;;1.00;;
6378;SDS011;3222;48.858;10.128;2022-08-01T11:02:58;1.35;;;1.25;;
6378;SDS011;3222;48.858;10.128;2022-08-01T11:05:26;2.35;;;1.30;;
6378;SDS011;3222;48.858;10.128;2022-08-01T11:07:55;1.20;;;1.20;;
6378;SDS011;3222;48.858;10.128;2022-08-01T11:10:39;1.05;;;1.02;;
6378;SDS011;3222;48.858;10.128;2022-08-01T11:13:08;1.30;;;1.20;;
6378;SDS011;3222;48.858;10.128;2022-08-01T11:15:36;1.63;;;1.23;;
6378;SDS011;3222;48.858;10.128;2022-08-01T11:20:57;2.38;;;1.17;;
6378;SDS011;3222;48.858;10.128;2022-08-01T11:23:29;2.15;;;1.42;;
6378;SDS011;3222;48.858;10.128;2022-08-01T11:28:26;1.80;;;1.70;;
6378;SDS011;3222;48.858;10.128;2022-08-01T11:38:39;5.28;;;1.40;;
6378;SDS011;3222;48.858;10.128;2022-08-01T11:41:22;3.72;;;1.33;;
6378;SDS011;3222;48.858;10.128;2022-08-01T11:43:56;1.20;;;1.20;;
6378;SDS011;3222;48.858;10.128;2022-08-01T11:57:29;1.95;;;1.23;;
6378;SDS011;3222;48.858;10.128;2022-08-01T11:59:57;1.50;;;1.40;;
6378;SDS011;3222;48.858;10.128;2022-08-01T12:02:27;2.85;;;1.45;;
6378;SDS011;3222;48.858;10.128;2022-08-01T12:07:21;3.55;;;1.50;;
6378;SDS011;3222;48.858;10.128;2022-08-01T12:09:48;1.88;;;1.55;;
6378;SDS011;3222;48.858;10.128;2022-08-01T12:12:21;4.07;;;1.50;;
6378;SDS011;3222;48.858;10.128;2022-08-01T12:14:52;3.78;;;1.60;;
6378;SDS011;3222;48.858;10.128;2022-08-01T12:19:59;1.55;;;1.45;;
6378;SDS011;3222;48.858;10.128;2022-08-01T12:22:25;1.90;;;1.50;;
6378;SDS011;3222;48.858;10.128;2022-08-01T12:24:51;1.67;;;1.58;;
6378;SDS011;3222;48.858;10.128;2022-08-01T12:27:24;1.75;;;1.65;;
6378;SDS011;3222;48.858;10.128;2022-08-01T12:29:54;1.73;;;1.40;;
6378;SDS011;3222;48.858;10.128;2022-08-01T12:32:28;1.70;;;1.60;;
6378;SDS011;3222;48.858;10.128;2022-08-01T12:35:01;1.65;;;1.55;;
6378;SDS011;3222;48.858;10.128;2022-08-01T12:37:34;1.40;;;1.30;;
6378;SDS011;3222;48.858;10.128;2022-08-01T12:40:02;2.15;;;1.52;;
6378;SDS011;3222;48.858;10.128;2022-08-01T12:42:36;1.58;;;1.48;;
6378;SDS011;3222;48.858;10.128;2022-08-01T12:45:04;2.38;;;1.88;;
6378;SDS011;3222;48.858;10.128;2022-08-01T12:47:32;1.60;;;1.50;;
6378;SDS011;3222;48.858;10.128;2022-08-01T12:49:58;2.45;;;1.70;;
6378;SDS011;3222;48.858;10.128;2022-08-01T12:52:23;2.38;;;2.17;;
6378;SDS011;3222;48.858;10.128;2022-08-01T12:55:05;2.42;;;1.80;;
6378;SDS011;3222;48.858;10.128;2022-08-01T12:57:36;2.13;;;1.98;;
6378;SDS011;3222;48.858;10.128;2022-08-01T13:00:05;2.60;;;2.40;;
6378;SDS011;3222;48.858;10.128;2022-08-01T13:02:34;2.78;;;2.03;;
6378;SDS011;3222;48.858;10.128;2022-08-01T13:05:01;2.13;;;2.03;;
6378;SDS011;3222;48.858;10.128;2022-08-01T13:07:38;1.60;;;1.50;;
6378;SDS011;3222;48.858;10.128;2022-08-01T13:10:05;3.08;;;1.48;;
6378;SDS011;3222;48.858;10.128;2022-08-01T13:12:32;1.38;;;1.27;;
6378;SDS011;3222;48.858;10.128;2022-08-01T13:14:58;1.25;;;1.25;;
6378;SDS011;3222;48.858;10.128;2022-08-01T13:17:30;2.22;;;1.33;;
6378;SDS011;3222;48.858;10.128;2022-08-01T13:19:57;1.05;;;1.05;;
6378;SDS011;3222;48.858;10.128;2022-08-01T13:22:31;2.03;;;1.20;;
6378;SDS011;3222;48.858;10.128;2022-08-01T13:25:13;1.10;;;1.10;;
6378;SDS011;3222;48.858;10.128;2022-08-01T13:27:39;5.18;;;1.30;;
6378;SDS011;3222;48.858;10.128;2022-08-01T13:30:15;1.60;;;1.38;;
6378;SDS011;3222;48.858;10.128;2022-08-01T13:33:03;1.30;;;1.20;;
6378;SDS011;3222;48.858;10.128;2022-08-01T13:35:28;2.42;;;1.70;;
6378;SDS011;3222;48.858;10.128;2022-08-01T13:37:54;2.15;;;1.40;;
6378;SDS011;3222;48.858;10.128;2022-08-01T13:40:26;1.23;;;1.00;;
6378;SDS011;3222;48.858;10.128;2022-08-01T13:42:55;1.38;;;1.27;;
6378;SDS011;3222;48.858;10.128;2022-08-01T13:45:22;1.30;;;1.20;;
6378;SDS011;3222;48.858;10.128;2022-08-01T13:47:48;0.82;;;0.80;;
6378;SDS011;3222;48.858;10.128;2022-08-01T13:50:14;1.23;;;1.13;;
6378;SDS011;3222;48.858;10.128;2022-08-01T13:52:40;1.08;;;1.08;;
6378;SDS011;3222;48.858;10.128;2022-08-01T13:55:06;1.00;;;1.00;;
6378;SDS011;3222;48.858;10.128;2022-08-01T13:57:32;0.93;;;0.93;;
6378;SDS011;3222;48.858;10.128;2022-08-01T13:59:57;1.17;;;0.80;;
6378;SDS011;3222;48.858;10.128;2022-08-01T14:02:26;0.90;;;0.90;;
6378;SDS011;3222;48.858;10.128;2022-08-01T14:04:53;1.23;;;1.00;;
6378;SDS011;3222;48.858;10.128;2022-08-01T14:07:23;1.55;;;1.10;;
6378;SDS011;3222;48.858;10.128;2022-08-01T14:09:49;2.20;;;1.10;;
6378;SDS011;3222;48.858;10.128;2022-08-01T14:12:15;2.05;;;0.95;;
6378;SDS011;3222;48.858;10.128;2022-08-01T14:14:41;1.13;;;1.02;;
6378;SDS011;3222;48.858;10.128;2022-08-01T14:17:07;0.90;;;0.90;;
6378;SDS011;3222;48.858;10.128;2022-08-01T14:19:33;1.00;;;1.00;;
6378;SDS011;3222;48.858;10.128;2022-08-01T14:21:58;0.85;;;0.85;;
6378;SDS011;3222;48.858;10.128;2022-08-01T14:24:24;0.88;;;0.88;;
6378;SDS011;3222;48.858;10.128;2022-08-01T14:26:51;0.80;;;0.80;;
6378;SDS011;3222;48.858;10.128;2022-08-01T14:29:17;0.70;;;0.70;;
6378;SDS011;3222;48.858;10.128;2022-08-01T14:31:42;0.88;;;0.82;;
6378;SDS011;3222;48.858;10.128;2022-08-01T14:34:08;1.42;;;0.80;;
6378;SDS011;3222;48.858;10.128;2022-08-01T14:36:34;1.30;;;1.20;;
6378;SDS011;3222;48.858;10.128;2022-08-01T14:38:59;2.72;;;0.98;;
6378;SDS011;3222;48.858;10.128;2022-08-01T14:41:25;0.80;;;0.80;;
6378;SDS011;3222;48.858;10.128;2022-08-01T14:43:51;1.30;;;0.98;;
6378;SDS011;3222;48.858;10.128;2022-08-01T14:46:16;1.90;;;0.88;;
6378;SDS011;3222;48.858;10.128;2022-08-01T14:48:42;0.90;;;0.80;;
6378;SDS011;3222;48.858;10.128;2022-08-01T14:51:08;0.80;;;0.80;;
6378;SDS011;3222;48.858;10.128;2022-08-01T14:53:34;1.50;;;0.95;;
6378;SDS011;3222;48.858;10.128;2022-08-01T14:56:02;0.70;;;0.70;;
6378;SDS011;3222;48.858;10.128;2022-08-01T14:58:31;0.82;;;0.80;;
6378;SDS011;3222;48.858;10.128;2022-08-01T15:00:57;1.80;;;0.88;;
6378;SDS011;3222;48.858;10.128;2022-08-01T15:03:23;2.15;;;0.90;;
6378;SDS011;3222;48.858;10.128;2022-08-01T15:05:48;2.40;;;0.90;;
6378;SDS011;3222;48.858;10.128;2022-08-01T15:08:14;0.90;;;0.85;;
6378;SDS011;3222;48.858;10.128;2022-08-01T15:10:40;1.08;;;1.08;;
6378;SDS011;3222;48.858;10.128;2022-08-01T15:13:05;1.65;;;0.70;;
6378;SDS011;3222;48.858;10.128;2022-08-01T15:15:32;0.80;;;0.80;;
6378;SDS011;3222;48.858;10.128;2022-08-01T15:17:58;0.70;;;0.70;;
6378;SDS011;3222;48.858;10.128;2022-08-01T15:20:24;0.73;;;0.68;;
6378;SDS011;3222;48.858;10.128;2022-08-01T15:22:52;0.70;;;0.70;;
6378;SDS011;3222;48.858;10.128;2022-08-01T15:25:18;2.38;;;0.82;;
6378;SDS011;3222;48.858;10.128;2022-08-01T15:27:44;0.90;;;0.73;;
6378;SDS011;3222;48.858;10.128;2022-08-01T15:30:10;1.05;;;0.80;;
6378;SDS011;3222;48.858;10.128;2022-08-01T15:32:36;0.68;;;0.60;;
6378;SDS011;3222;48.858;10.128;2022-08-01T15:35:02;0.60;;;0.60;;
6378;SDS011;3222;48.858;10.128;2022-08-01T15:37:27;1.95;;;0.80;;
6378;SDS011;3222;48.858;10.128;2022-08-01T15:39:53;0.77;;;0.77;;
6378;SDS011;3222;48.858;10.128;2022-08-01T15:42:19;1.88;;;0.65;;
6378;SDS011;3222;48.858;10.128;2022-08-01T15:44:45;0.70;;;0.70;;
6378;SDS011;3222;48.858;10.128;2022-08-01T15:47:11;0.60;;;0.60;;
6378;SDS011;3222;48.858;10.128;2022-08-01T15:49:37;0.80;;;0.80;;